createdAt,value
2023-04-14T00:00:50.958Z,97267.63
2023-04-14T00:03:21.171Z,97267.34
2023-04-14T00:05:51.362Z,97256.03
2023-04-14T00:08:23.885Z,97252.00
2023-04-14T00:10:54.050Z,97256.75
2023-04-14T00:13:24.114Z,97257.59
2023-04-14T00:15:54.114Z,97247.00
2023-04-14T00:18:24.155Z,97252.09
2023-04-14T00:20:54.488Z,97265.81
2023-04-14T00:23:27.095Z,97265.69
2023-04-14T00:25:57.277Z,97265.06
2023-04-14T00:28:27.328Z,97264.03
2023-04-14T00:30:57.299Z,97266.69
2023-04-14T00:33:27.672Z,97262.91
2023-04-14T00:35:57.792Z,97271.44
2023-04-14T00:38:30.589Z,97274.00
2023-04-14T00:41:00.903Z,97274.34
2023-04-14T00:43:30.991Z,97285.56
2023-04-14T00:46:01.636Z,97282.56
2023-04-14T00:48:32.582Z,97280.63
2023-04-14T00:51:02.703Z,97283.50
2023-04-14T00:53:35.520Z,97285.72
2023-04-14T00:56:05.852Z,97282.00
2023-04-14T00:58:36.108Z,97283.88
2023-04-14T01:01:06.611Z,97291.47
2023-04-14T01:03:38.293Z,97287.09
2023-04-14T01:06:08.663Z,97298.72
2023-04-14T01:08:41.471Z,97293.25
2023-04-14T01:11:19.383Z,97298.16
2023-04-14T01:13:56.582Z,97301.28
2023-04-14T01:16:32.701Z,97302.53
2023-04-14T01:19:11.314Z,97308.31
2023-04-14T01:21:44.561Z,97308.75
2023-04-14T01:24:38.754Z,97308.72
2023-04-14T01:27:26.076Z,97312.44
2023-04-14T01:30:13.195Z,97316.69
2023-04-14T01:32:50.008Z,97320.63
2023-04-14T01:35:29.356Z,97318.44
2023-04-14T01:38:06.699Z,97314.66
2023-04-14T01:40:38.139Z,97320.53
2023-04-14T01:43:13.154Z,97321.31
2023-04-14T01:45:52.045Z,97327.66
2023-04-14T01:48:26.763Z,97320.25
2023-04-14T01:50:58.820Z,97323.59
2023-04-14T01:53:30.984Z,97320.47
2023-04-14T01:56:02.499Z,97321.25
2023-04-14T01:58:33.964Z,97315.94
2023-04-14T02:01:04.337Z,97330.28
2023-04-14T02:03:38.963Z,97324.28
2023-04-14T02:06:11.842Z,97319.91
2023-04-14T02:08:43.959Z,97329.19
2023-04-14T02:11:16.070Z,97326.88
2023-04-14T02:13:46.716Z,97330.00
2023-04-14T02:16:18.086Z,97324.34
2023-04-14T02:18:52.484Z,97324.03
2023-04-14T02:21:25.913Z,97313.50
2023-04-14T02:23:55.940Z,97323.72
2023-04-14T02:26:30.637Z,97320.56
2023-04-14T02:29:13.915Z,97327.31
2023-04-14T02:31:48.023Z,97328.25
2023-04-14T02:34:26.658Z,97321.50
2023-04-14T02:36:59.384Z,97324.47
2023-04-14T02:39:34.624Z,97327.75
2023-04-14T02:42:11.159Z,97324.94
2023-04-14T02:44:48.492Z,97329.97
2023-04-14T02:47:26.051Z,97329.69
2023-04-14T02:50:03.481Z,97326.06
2023-04-14T02:52:35.683Z,97324.94
2023-04-14T02:55:08.826Z,97324.94
2023-04-14T02:57:39.404Z,97327.78
2023-04-14T03:00:11.362Z,97327.47
2023-04-14T03:02:47.240Z,97329.06
2023-04-14T03:05:20.792Z,97327.78
2023-04-14T03:08:13.754Z,97327.78
2023-04-14T03:10:48.421Z,97326.69
2023-04-14T03:13:21.820Z,97321.66
2023-04-14T03:15:53.604Z,97317.72
2023-04-14T03:18:25.508Z,97332.50
2023-04-14T03:21:00.949Z,97329.38
2023-04-14T03:23:32.513Z,97326.06
2023-04-14T03:26:06.455Z,97321.63
2023-04-14T03:28:38.835Z,97327.47
2023-04-14T03:31:12.135Z,97322.44
2023-04-14T03:33:55.763Z,97328.06
2023-04-14T03:36:29.962Z,97336.56
2023-04-14T03:39:03.160Z,97325.09
2023-04-14T03:41:38.426Z,97324.28
2023-04-14T03:44:15.827Z,97317.50
2023-04-14T03:46:49.486Z,97313.06
2023-04-14T03:49:21.779Z,97311.19
2023-04-14T03:51:57.523Z,97323.25
2023-04-14T03:54:30.598Z,97320.84
2023-04-14T03:57:02.315Z,97324.84
2023-04-14T03:59:33.237Z,97323.44
2023-04-14T04:02:04.197Z,97319.97
2023-04-14T04:04:34.967Z,97317.47
2023-04-14T04:07:10.679Z,97319.53
2023-04-14T04:09:43.006Z,97319.59
2023-04-14T04:12:14.386Z,97319.94
2023-04-14T04:14:44.706Z,97323.06
2023-04-14T04:17:17.491Z,97321.66
2023-04-14T04:19:49.634Z,97314.59
2023-04-14T04:22:23.784Z,97315.94
2023-04-14T04:24:55.020Z,97327.47
2023-04-14T04:27:30.724Z,97321.78
2023-04-14T04:30:13.077Z,97318.75
2023-04-14T04:32:43.584Z,97321.28
2023-04-14T04:35:15.605Z,97328.97
2023-04-14T04:37:51.571Z,97323.31
2023-04-14T04:40:22.424Z,97336.09
2023-04-14T04:42:54.765Z,97331.31
2023-04-14T04:45:39.006Z,97336.38
2023-04-14T04:48:09.818Z,97340.47
2023-04-14T04:50:40.070Z,97338.41
2023-04-14T04:53:15.025Z,97345.78
2023-04-14T04:55:45.323Z,97342.31
2023-04-14T04:58:15.741Z,97343.63
2023-04-14T05:00:46.673Z,97348.69
2023-04-14T05:03:17.644Z,97350.56
2023-04-14T05:05:47.916Z,97354.00
2023-04-14T05:08:20.734Z,97349.91
2023-04-14T05:10:51.187Z,97354.06
2023-04-14T05:13:22.739Z,97358.47
2023-04-14T05:15:53.278Z,97354.16
2023-04-14T05:18:23.577Z,97362.34
2023-04-14T05:20:53.807Z,97352.19
2023-04-14T05:23:26.757Z,97357.38
2023-04-14T05:26:11.190Z,97358.50
2023-04-14T05:28:48.689Z,97365.69
2023-04-14T05:31:20.366Z,97369.88
2023-04-14T05:33:50.664Z,97371.19
2023-04-14T05:36:20.907Z,97376.44
2023-04-14T05:38:53.812Z,97379.81
2023-04-14T05:41:24.015Z,97389.41
2023-04-14T05:43:54.232Z,97391.53
2023-04-14T05:46:24.485Z,97392.38
2023-04-14T05:48:55.094Z,97393.28
2023-04-14T05:51:25.347Z,97400.50
2023-04-14T05:53:58.446Z,97403.47
2023-04-14T05:56:28.979Z,97411.88
2023-04-14T05:58:59.204Z,97416.41
2023-04-14T06:01:29.455Z,97420.25
2023-04-14T06:04:04.207Z,97416.38
2023-04-14T06:06:35.292Z,97414.25
2023-04-14T06:09:08.111Z,97422.00
2023-04-14T06:11:38.375Z,97420.41
2023-04-14T06:14:09.151Z,97429.22
2023-04-14T06:16:39.392Z,97434.53
2023-04-14T06:19:09.868Z,97431.81
2023-04-14T06:21:40.303Z,97433.78
2023-04-14T06:24:13.165Z,97432.56
2023-04-14T06:26:43.369Z,97426.75
2023-04-14T06:29:14.351Z,97427.84
2023-04-14T06:31:44.610Z,97425.28
2023-04-14T06:34:14.848Z,97428.22
2023-04-14T06:36:45.074Z,97420.94
2023-04-14T06:39:17.909Z,97425.34
2023-04-14T06:41:48.159Z,97425.72
2023-04-14T06:44:18.395Z,97420.75
2023-04-14T06:46:48.768Z,97420.16
2023-04-14T06:49:20.082Z,97417.06
2023-04-14T06:51:50.908Z,97425.94
2023-04-14T06:54:23.745Z,97420.47
2023-04-14T06:56:54.152Z,97427.63
2023-04-14T06:59:28.061Z,97416.81
2023-04-14T07:01:59.020Z,97418.56
2023-04-14T07:04:29.461Z,97405.78
2023-04-14T07:07:01.761Z,97394.31
2023-04-14T07:09:35.005Z,97404.34
2023-04-14T07:12:06.206Z,97396.41
2023-04-14T07:14:38.022Z,97395.78
2023-04-14T07:17:07.897Z,97388.53
2023-04-14T07:19:37.790Z,97386.59
2023-04-14T07:22:09.169Z,97385.47
2023-04-14T07:24:41.759Z,97387.63
2023-04-14T07:27:15.667Z,97382.13
2023-04-14T07:29:45.862Z,97381.47
2023-04-14T07:32:16.198Z,97385.00
2023-04-14T07:34:46.440Z,97383.72
2023-04-14T07:37:16.584Z,97383.25
2023-04-14T07:39:49.075Z,97379.84
2023-04-14T07:42:19.056Z,97383.25
2023-04-14T07:44:48.962Z,97384.00
2023-04-14T07:47:18.813Z,97384.50
2023-04-14T07:49:49.369Z,97391.50
2023-04-14T07:52:19.681Z,97389.69
2023-04-14T07:54:52.131Z,97390.09
2023-04-14T07:57:22.015Z,97389.66
2023-04-14T07:59:51.914Z,97390.56
2023-04-14T08:02:21.955Z,97391.66
2023-04-14T08:04:52.029Z,97395.13
2023-04-14T08:07:21.902Z,97395.75
2023-04-14T08:09:54.394Z,97400.31
2023-04-14T08:12:24.344Z,97388.56
2023-04-14T08:14:57.250Z,97389.22
2023-04-14T08:17:27.417Z,97391.38
2023-04-14T08:19:57.496Z,97389.91
2023-04-14T08:22:27.572Z,97386.06
2023-04-14T08:25:00.034Z,97382.72
2023-04-14T08:27:30.121Z,97382.22
2023-04-14T08:30:00.344Z,97372.25
2023-04-14T08:32:30.606Z,97369.25
2023-04-14T08:35:37.481Z,97372.22
2023-04-14T08:37:52.535Z,97367.75
2023-04-14T08:40:27.866Z,97359.28
2023-04-14T08:42:59.261Z,97365.53
2023-04-14T08:45:29.857Z,97362.09
2023-04-14T08:48:01.247Z,97363.13
2023-04-14T08:50:34.908Z,97355.81
2023-04-14T08:53:06.693Z,97354.59
2023-04-14T08:55:42.014Z,97362.16
2023-04-14T08:58:13.214Z,97367.59
2023-04-14T09:00:43.568Z,97362.88
2023-04-14T09:03:15.102Z,97359.84
2023-04-14T09:05:45.669Z,97362.47
2023-04-14T09:08:16.418Z,97351.34
2023-04-14T09:10:49.498Z,97357.34
2023-04-14T09:13:21.012Z,97348.22
2023-04-14T09:15:52.294Z,97346.72
2023-04-14T09:18:23.080Z,97345.50
2023-04-14T09:21:30.438Z,97344.56
2023-04-14T09:23:44.038Z,97343.59
2023-04-14T09:26:17.046Z,97337.00
2023-04-14T09:28:47.579Z,97343.94
2023-04-14T09:31:17.494Z,97349.59
2023-04-14T09:33:51.149Z,97350.94
2023-04-14T09:36:22.558Z,97350.47
2023-04-14T09:38:53.595Z,97344.94
2023-04-14T09:41:26.737Z,97344.31
2023-04-14T09:43:56.621Z,97345.34
2023-04-14T09:46:26.506Z,97351.00
2023-04-14T09:48:58.015Z,97338.66
2023-04-14T09:51:33.070Z,97335.75
2023-04-14T09:54:06.464Z,97326.59
2023-04-14T09:56:39.302Z,97333.50
2023-04-14T09:59:10.913Z,97331.81
2023-04-14T10:01:40.872Z,97324.28
2023-04-14T10:04:24.766Z,97324.56
2023-04-14T10:06:58.305Z,97319.47
2023-04-14T10:09:29.747Z,97315.06
2023-04-14T10:12:18.606Z,97313.75
2023-04-14T10:14:48.539Z,97308.09
2023-04-14T10:17:19.853Z,97307.22
2023-04-14T10:19:50.123Z,97304.72
2023-04-14T10:22:20.914Z,97301.50
2023-04-14T10:24:52.442Z,97287.03
2023-04-14T10:27:25.691Z,97292.91
2023-04-14T10:29:56.243Z,97281.63
2023-04-14T10:32:28.210Z,97278.63
2023-04-14T10:35:02.491Z,97273.91
2023-04-14T10:37:32.996Z,97267.22
2023-04-14T10:40:05.604Z,97275.44
2023-04-14T10:42:57.450Z,97272.59
2023-04-14T10:45:27.467Z,97270.41
2023-04-14T10:47:58.921Z,97268.34
2023-04-14T10:50:32.109Z,97268.06
2023-04-14T10:53:09.641Z,97263.13
2023-04-14T10:55:52.312Z,97261.59
2023-04-14T10:58:26.030Z,97259.75
2023-04-14T11:00:55.959Z,97255.69
2023-04-14T11:03:28.750Z,97250.63
2023-04-14T11:05:58.828Z,97238.56
2023-04-14T11:08:30.845Z,97239.31
2023-04-14T11:11:04.360Z,97231.13
2023-04-14T11:13:38.875Z,97227.69
2023-04-14T11:16:10.939Z,97223.53
2023-04-14T11:18:45.337Z,97222.19
2023-04-14T11:21:18.400Z,97219.34
2023-04-14T11:23:49.221Z,97218.81
2023-04-14T11:26:19.488Z,97217.81
2023-04-14T11:28:53.700Z,97215.72
2023-04-14T11:31:23.572Z,97216.00
2023-04-14T11:33:53.433Z,97225.53
2023-04-14T11:36:23.562Z,97220.25
2023-04-14T11:38:53.467Z,97224.47
2023-04-14T11:41:23.482Z,97214.75
2023-04-14T11:43:57.190Z,97221.59
2023-04-14T11:46:27.365Z,97215.78
2023-04-14T11:48:58.948Z,97216.28
2023-04-14T11:51:33.829Z,97221.69
2023-04-14T11:54:03.799Z,97221.53
2023-04-14T11:56:34.726Z,97214.50
2023-04-14T11:59:09.030Z,97211.25
2023-04-14T12:01:39.045Z,97208.75
2023-04-14T12:04:10.727Z,97210.69
2023-04-14T12:06:41.589Z,97200.94
2023-04-14T12:09:12.315Z,97204.09
2023-04-14T12:11:42.199Z,97184.91
2023-04-14T12:14:15.668Z,97182.53
2023-04-14T12:16:45.595Z,97176.59
2023-04-14T12:19:17.551Z,97168.78
2023-04-14T12:21:54.373Z,97173.16
2023-04-14T12:24:24.277Z,97171.00
2023-04-14T12:26:55.009Z,97167.47
2023-04-14T12:29:27.547Z,97147.63
2023-04-14T12:31:57.781Z,97147.38
2023-04-14T12:34:28.422Z,97141.88
2023-04-14T12:36:58.326Z,97140.28
2023-04-14T12:39:29.083Z,97143.91
2023-04-14T12:42:01.724Z,97136.88
2023-04-14T12:44:34.234Z,97125.59
2023-04-14T12:47:04.141Z,97133.09
2023-04-14T12:49:39.132Z,97135.94
2023-04-14T12:52:09.280Z,97144.56
2023-04-14T12:54:50.158Z,97138.53
2023-04-14T12:57:21.830Z,97131.28
2023-04-14T12:59:54.949Z,97139.31
2023-04-14T13:02:25.349Z,97127.34
2023-04-14T13:04:55.397Z,97120.38
2023-04-14T13:07:25.539Z,97113.19
2023-04-14T13:09:55.739Z,97123.75
2023-04-14T13:12:25.926Z,97111.16
2023-04-14T13:14:58.422Z,97110.34
2023-04-14T13:17:28.820Z,97105.78
2023-04-14T13:19:58.894Z,97094.03
2023-04-14T13:22:28.874Z,97088.97
2023-04-14T13:25:00.760Z,97086.63
2023-04-14T13:27:31.150Z,97087.31
2023-04-14T13:30:04.461Z,97071.47
2023-04-14T13:32:34.560Z,97067.78
2023-04-14T13:35:04.438Z,97066.03
2023-04-14T13:37:34.312Z,97078.03
2023-04-14T13:40:04.188Z,97074.34
2023-04-14T13:42:34.152Z,97067.47
2023-04-14T13:45:07.906Z,97065.09
2023-04-14T13:47:37.859Z,97062.47
2023-04-14T13:50:08.718Z,97060.09
2023-04-14T13:52:38.570Z,97049.25
2023-04-14T13:55:10.395Z,97050.84
2023-04-14T13:57:40.437Z,97043.97
2023-04-14T14:00:14.474Z,97043.72
2023-04-14T14:02:44.503Z,97035.91
2023-04-14T14:05:14.805Z,97037.94
2023-04-14T14:07:44.826Z,97046.72
2023-04-14T14:10:15.129Z,97041.50
2023-04-14T14:12:45.067Z,97034.03
2023-04-14T14:15:17.568Z,97026.66
2023-04-14T14:17:47.602Z,97027.56
2023-04-14T14:20:17.715Z,97025.06
2023-04-14T14:22:47.879Z,97031.88
2023-04-14T14:25:21.058Z,97031.84
2023-04-14T14:27:52.161Z,97025.75
2023-04-14T14:30:25.121Z,97031.66
2023-04-14T14:32:54.994Z,97026.69
2023-04-14T14:35:24.903Z,97026.63
2023-04-14T14:37:54.768Z,97024.91
2023-04-14T14:40:24.862Z,97015.81
2023-04-14T14:42:54.730Z,97012.94
2023-04-14T14:45:30.889Z,97021.19
2023-04-14T14:48:02.176Z,97015.28
2023-04-14T14:50:32.308Z,97022.00
2023-04-14T14:53:02.150Z,97023.56
2023-04-14T14:55:32.439Z,97030.69
2023-04-14T14:58:03.744Z,97024.34
2023-04-14T15:00:36.392Z,97021.75
2023-04-14T15:03:06.962Z,97022.69
2023-04-14T15:05:37.194Z,97024.69
2023-04-14T15:08:07.484Z,97022.78
2023-04-14T15:10:37.661Z,97030.78
2023-04-14T15:13:07.602Z,97021.53
2023-04-14T15:15:40.440Z,97020.00
2023-04-14T15:18:10.636Z,97017.25
2023-04-14T15:20:40.584Z,97014.88
2023-04-14T15:23:10.459Z,97014.13
2023-04-14T15:25:40.344Z,97018.09
2023-04-14T15:28:10.207Z,97032.78
2023-04-14T15:30:42.786Z,97025.50
2023-04-14T15:33:12.740Z,97023.28
2023-04-14T15:35:42.670Z,97027.44
2023-04-14T15:38:12.777Z,97026.25
2023-04-14T15:40:42.823Z,97024.16
2023-04-14T15:43:13.289Z,97019.25
2023-04-14T15:45:46.274Z,97007.13
2023-04-14T15:48:16.167Z,97014.03
2023-04-14T15:50:46.148Z,97007.22
2023-04-14T15:53:16.147Z,97005.78
2023-04-14T15:55:46.974Z,97005.50
2023-04-14T15:58:17.079Z,96999.13
2023-04-14T16:00:49.936Z,96999.53
2023-04-14T16:03:21.017Z,97003.94
2023-04-14T16:05:51.030Z,97007.41
2023-04-14T16:08:21.110Z,97005.47
2023-04-14T16:10:51.019Z,97017.69
2023-04-14T16:13:21.075Z,97010.13
2023-04-14T16:15:53.789Z,97022.38
2023-04-14T16:18:24.129Z,97010.59
2023-04-14T16:20:54.017Z,97005.63
2023-04-14T16:23:23.907Z,97006.00
2023-04-14T16:25:53.819Z,97006.50
2023-04-14T16:28:25.061Z,97007.47
2023-04-14T16:30:57.689Z,97012.44
2023-04-14T16:33:27.655Z,97002.94
2023-04-14T16:35:58.645Z,97004.91
2023-04-14T16:38:28.575Z,97012.81
2023-04-14T16:40:59.153Z,97009.38
2023-04-14T16:43:30.033Z,97009.66
2023-04-14T16:46:08.039Z,97010.88
2023-04-14T16:48:38.585Z,97012.16
2023-04-14T16:51:09.613Z,97017.06
2023-04-14T16:53:40.371Z,97018.25
2023-04-14T16:56:11.420Z,97011.59
2023-04-14T16:58:42.285Z,97023.88
2023-04-14T17:01:15.004Z,97018.38
2023-04-14T17:03:45.400Z,97022.72
2023-04-14T17:06:15.611Z,97028.81
2023-04-14T17:08:45.506Z,97022.97
2023-04-14T17:11:16.222Z,97020.25
2023-04-14T17:13:46.245Z,97022.84
2023-04-14T17:16:18.806Z,97018.88
2023-04-14T17:18:49.218Z,97014.50
2023-04-14T17:21:19.458Z,97014.97
2023-04-14T17:23:49.530Z,97018.41
2023-04-14T17:26:19.715Z,97018.03
2023-04-14T17:28:49.674Z,97021.91
2023-04-14T17:31:22.948Z,97015.44
2023-04-14T17:33:53.615Z,97031.09
2023-04-14T17:36:23.521Z,97024.88
2023-04-14T17:38:54.539Z,97021.31
2023-04-14T17:41:25.147Z,97030.16
2023-04-14T17:43:55.022Z,97025.53
2023-04-14T17:46:33.719Z,97026.72
2023-04-14T17:49:04.697Z,97028.41
2023-04-14T17:51:35.428Z,97027.81
2023-04-14T17:54:07.767Z,97026.69
2023-04-14T17:56:37.927Z,97029.56
2023-04-14T17:59:07.910Z,97035.28
2023-04-14T18:01:40.943Z,97026.34
2023-04-14T18:04:11.051Z,97023.56
2023-04-14T18:06:41.026Z,97028.91
2023-04-14T18:09:11.424Z,97024.91
2023-04-14T18:11:41.308Z,97031.88
2023-04-14T18:14:11.588Z,97035.56
2023-04-14T18:16:44.158Z,97037.63
2023-04-14T18:19:14.065Z,97035.72
2023-04-14T18:21:45.106Z,97037.00
2023-04-14T18:26:48.665Z,97045.84
2023-04-14T18:29:18.882Z,97053.88
2023-04-14T18:31:52.246Z,97054.28
2023-04-14T18:34:23.072Z,97057.41
2023-04-14T18:36:53.582Z,97061.28
2023-04-14T18:39:24.123Z,97058.97
2023-04-14T18:41:54.442Z,97062.88
2023-04-14T18:44:24.662Z,97065.22
2023-04-14T18:46:57.553Z,97068.16
2023-04-14T18:49:28.656Z,97065.03
2023-04-14T18:51:58.895Z,97065.44
2023-04-14T18:54:29.157Z,97067.94
2023-04-14T18:57:00.187Z,97070.66
2023-04-14T18:59:30.412Z,97075.09
2023-04-14T19:02:04.683Z,97073.88
2023-04-14T19:04:35.059Z,97069.38
2023-04-14T19:07:05.493Z,97078.53
2023-04-14T19:09:37.753Z,97080.66
2023-04-14T19:12:18.491Z,97075.03
2023-04-14T19:14:57.988Z,97083.09
2023-04-14T19:17:30.947Z,97084.69
2023-04-14T19:20:01.202Z,97085.09
2023-04-14T19:22:31.487Z,97089.38
2023-04-14T19:25:01.937Z,97091.50
2023-04-14T19:27:33.153Z,97100.81
2023-04-14T19:30:04.037Z,97097.50
2023-04-14T19:32:37.066Z,97102.53
2023-04-14T19:35:07.894Z,97098.44
2023-04-14T19:37:38.554Z,97099.38
2023-04-14T19:40:11.089Z,97097.22
2023-04-14T19:42:41.555Z,97109.06
2023-04-14T19:45:12.824Z,97094.63
2023-04-14T19:47:45.825Z,97097.41
2023-04-14T19:50:16.827Z,97100.63
2023-04-14T19:52:49.930Z,97096.25
2023-04-14T19:55:20.486Z,97096.63
2023-04-14T19:57:51.439Z,97098.69
2023-04-14T20:00:21.998Z,97088.13
2023-04-14T20:02:55.722Z,97094.47
2023-04-14T20:05:26.008Z,97096.00
2023-04-14T20:07:56.232Z,97088.31
2023-04-14T20:10:26.478Z,97086.50
2023-04-14T20:12:56.777Z,97091.47
2023-04-14T20:15:27.149Z,97089.44
2023-04-14T20:18:00.136Z,97087.13
2023-04-14T20:20:30.387Z,97086.66
2023-04-14T20:23:01.647Z,97089.66
2023-04-14T20:25:33.902Z,97091.91
2023-04-14T20:28:04.216Z,97090.31
2023-04-14T20:30:35.115Z,97089.41
2023-04-14T20:33:08.506Z,97090.84
2023-04-14T20:35:40.483Z,97092.56
2023-04-14T20:38:11.414Z,97085.25
2023-04-14T20:40:42.967Z,97086.53
2023-04-14T20:43:13.242Z,97083.97
2023-04-14T20:45:43.565Z,97089.34
2023-04-14T20:48:16.406Z,97096.09
2023-04-14T20:50:49.865Z,97088.19
2023-04-14T20:53:22.161Z,97087.00
2023-04-14T20:55:52.442Z,97098.50
2023-04-14T20:58:22.758Z,97093.06
2023-04-14T21:00:53.339Z,97088.38
2023-04-14T21:03:27.961Z,97083.81
2023-04-14T21:05:58.381Z,97089.44
2023-04-14T21:08:28.834Z,97090.63
2023-04-14T21:11:15.544Z,97091.03
2023-04-14T21:15:27.089Z,97086.25
2023-04-14T21:16:38.377Z,97087.81
2023-04-14T21:19:13.492Z,97090.19
2023-04-14T21:21:43.747Z,97090.47
2023-04-14T21:24:13.971Z,97093.25
2023-04-14T21:26:44.196Z,97100.34
2023-04-14T21:29:14.611Z,97094.81
2023-04-14T21:31:45.269Z,97098.09
2023-04-14T21:34:18.516Z,97091.53
2023-04-14T21:36:49.068Z,97090.75
2023-04-14T21:39:20.535Z,97087.38
2023-04-14T21:41:52.153Z,97090.97
2023-04-14T21:44:22.676Z,97088.28
2023-04-14T21:46:53.204Z,97095.81
2023-04-14T21:49:26.656Z,97084.84
2023-04-14T21:51:56.852Z,97092.72
2023-04-14T21:54:27.295Z,97092.44
2023-04-14T21:56:58.345Z,97091.41
2023-04-14T21:59:28.797Z,97097.13
2023-04-14T22:01:59.385Z,97098.88
2023-04-14T22:04:36.597Z,97097.47
2023-04-14T22:07:07.942Z,97090.56
2023-04-14T22:09:39.578Z,97096.97
2023-04-14T22:12:09.820Z,97094.19
2023-04-14T22:14:40.217Z,97096.44
2023-04-14T22:17:11.905Z,97097.31
2023-04-14T22:19:45.108Z,97097.56
2023-04-14T22:22:16.302Z,97094.06
2023-04-14T22:24:46.558Z,97094.53
2023-04-14T22:27:16.798Z,97097.72
2023-04-14T22:29:47.280Z,97099.91
2023-04-14T22:32:17.813Z,97098.31
2023-04-14T22:34:51.065Z,97098.81
2023-04-14T22:37:21.633Z,97099.34
2023-04-14T22:39:51.837Z,97106.34
2023-04-14T22:42:22.090Z,97114.50
2023-04-14T22:44:53.669Z,97118.50
2023-04-14T22:47:24.074Z,97115.13
2023-04-14T22:49:56.946Z,97122.50
2023-04-14T22:52:28.495Z,97112.94
2023-04-14T22:54:58.726Z,97121.44
2023-04-14T22:57:29.381Z,97117.06
2023-04-14T22:59:59.752Z,97123.22
2023-04-14T23:02:30.169Z,97128.72
2023-04-14T23:05:04.347Z,97121.50
2023-04-14T23:07:34.896Z,97118.09
2023-04-14T23:10:06.297Z,97113.38
2023-04-14T23:12:36.867Z,97117.81
2023-04-14T23:15:08.040Z,97117.97
2023-04-14T23:17:38.439Z,97119.25
2023-04-14T23:20:12.049Z,97117.66
2023-04-14T23:22:42.385Z,97118.28
2023-04-14T23:25:12.968Z,97113.06
2023-04-14T23:27:43.737Z,97108.72
2023-04-14T23:30:14.328Z,97116.56
2023-04-14T23:32:44.632Z,97111.59
2023-04-14T23:35:17.613Z,97109.09
2023-04-14T23:37:48.036Z,97111.59
2023-04-14T23:40:18.349Z,97110.78
2023-04-14T23:42:48.978Z,97106.72
2023-04-14T23:45:19.339Z,97101.97
2023-04-14T23:47:49.790Z,97109.66
2023-04-14T23:50:23.060Z,97108.75
2023-04-14T23:53:13.372Z,97109.09
2023-04-14T23:55:44.091Z,97104.84
2023-04-14T23:58:25.964Z,97105.00
